Time;durP1;ratioP1;P1;durP2;ratioP2;P2;SDS_P1;SDS_P2;PMS_P1;PMS_P2;Temp;Humidity;BMP_temperature;BMP_pressure;BME280_temperature;BME280_humidity;BME280_pressure;Samples;Min_cycle;Max_cycle;Signal;HPM_P1;HPM_P2
2022/01/15 00:01:55;;;;;;;;;95.00;82.33;;;;;4.71;85.24;102161.88;5056586;28;46920;-60
2022/01/15 00:04:21;;;;;;;;;92.67;82.33;;;;;4.70;84.89;102158.41;5057533;28;45386;-61
2022/01/15 00:06:46;;;;;;;;;95.33;78.67;;;;;4.70;85.52;102148.00;5036546;28;45339;-59
2022/01/15 00:09:11;;;;;;;;;95.00;81.00;;;;;4.68;85.36;102149.72;5045574;28;45305;-61
2022/01/15 00:11:37;;;;;;;;;85.00;71.67;;;;;4.70;85.59;102144.50;5057297;28;45227;-61
2022/01/15 00:14:25;;;;;;;;;85.00;72.00;;;;;4.69;84.78;102141.03;5057777;28;45328;-61
2022/01/15 00:17:06;;;;;;;;;85.00;71.33;;;;;4.67;85.32;102151.44;5054705;28;45499;-63
2022/01/15 00:19:42;;;;;;;;;92.00;73.33;;;;;4.64;85.27;102147.94;5056499;28;45432;-64
2022/01/15 00:22:16;;;;;;;;;86.33;75.67;;;;;4.60;84.84;102152.22;5074377;27;46028;-61
2022/01/15 00:24:42;;;;;;;;;91.67;80.00;;;;;4.61;85.63;102147.91;5065318;28;45379;-62
2022/01/15 00:27:08;;;;;;;;;87.33;73.00;;;;;4.59;85.49;102140.06;5081656;28;45291;-62
2022/01/15 00:29:34;;;;;;;;;93.67;85.00;;;;;4.56;85.39;102137.41;5084656;27;45664;-60
2022/01/15 00:32:01;;;;;;;;;87.33;78.00;;;;;4.55;85.53;102133.06;5078297;28;46155;-62
2022/01/15 00:34:27;;;;;;;;;100.33;79.67;;;;;4.56;85.19;102139.16;5076213;28;45475;-59
2022/01/15 00:36:53;;;;;;;;;105.67;93.00;;;;;4.54;85.84;102139.13;5063787;28;45458;-60
2022/01/15 00:39:18;;;;;;;;;99.67;86.33;;;;;4.54;86.05;102139.13;5056128;28;45515;-59
2022/01/15 00:41:44;;;;;;;;;90.67;79.67;;;;;4.54;85.71;102126.09;5052555;28;46617;-60
2022/01/15 00:44:09;;;;;;;;;93.67;80.67;;;;;4.52;85.57;102123.50;5052464;28;46148;-61
2022/01/15 00:46:35;;;;;;;;;88.33;78.00;;;;;4.54;85.56;102126.09;5054468;28;45409;-60
2022/01/15 00:49:00;;;;;;;;;91.67;84.00;;;;;4.52;86.21;102123.50;5055805;28;45600;-60
2022/01/15 00:51:25;;;;;;;;;91.00;82.67;;;;;4.52;85.42;102120.00;5054928;28;45527;-60
2022/01/15 00:53:51;;;;;;;;;86.33;75.33;;;;;4.50;85.27;102125.22;5056520;28;45396;-59
2022/01/15 00:56:16;;;;;;;;;86.33;74.67;;;;;4.49;85.53;102123.47;5057332;28;45187;-61
2022/01/15 00:58:42;;;;;;;;;102.33;85.33;;;;;4.47;85.51;102125.19;5057506;28;45623;-62
2022/01/15 01:01:07;;;;;;;;;92.67;79.67;;;;;4.48;85.18;102121.72;5038628;28;47472;-61
2022/01/15 01:03:32;;;;;;;;;87.33;78.00;;;;;4.47;85.15;102113.88;5041443;28;45280;-65
2022/01/15 01:05:58;;;;;;;;;89.00;78.67;;;;;4.45;84.93;102110.38;5059417;28;45350;-60
2022/01/15 01:08:23;;;;;;;;;95.00;78.67;;;;;4.46;85.47;102113.03;5057768;28;45244;-60
2022/01/15 01:13:38;;;;;;;;;90.33;76.33;;;;;4.45;85.30;102106.06;5056397;28;45341;-61
2022/01/15 01:23:56;;;;;;;;;94.33;86.00;;;;;4.37;85.67;102092.94;5057552;28;45447;-63
2022/01/15 01:26:39;;;;;;;;;88.00;78.33;;;;;4.34;85.60;102089.44;5056249;28;46020;-61
2022/01/15 01:31:56;;;;;;;;;96.33;81.00;;;;;4.29;85.29;102075.50;5056672;28;45329;-60
2022/01/15 01:34:24;;;;;;;;;96.67;81.67;;;;;4.31;85.83;102081.59;5057288;28;45466;-60
2022/01/15 01:37:04;;;;;;;;;100.33;86.00;;;;;4.27;85.67;102061.59;5058251;28;45316;-61
2022/01/15 01:39:40;;;;;;;;;97.33;86.67;;;;;4.28;86.14;102065.94;5057807;28;45418;-61
2022/01/15 01:45:06;;;;;;;;;94.67;87.00;;;;;4.26;85.56;102072.88;5062060;28;45436;-61
2022/01/15 01:47:49;;;;;;;;;104.00;90.67;;;;;4.20;85.60;102068.47;5056671;28;45499;-62
2022/01/15 01:50:18;;;;;;;;;91.33;81.00;;;;;4.17;86.21;102074.50;5058386;28;45334;-60
2022/01/15 01:52:54;;;;;;;;;95.67;81.67;;;;;4.16;85.77;102067.53;5057408;28;46018;-61
2022/01/15 01:55:22;;;;;;;;;91.67;78.00;;;;;4.16;85.88;102069.28;5056871;28;45900;-60
2022/01/15 01:57:49;;;;;;;;;92.00;79.67;;;;;4.14;86.52;102074.47;5061816;28;45377;-62
2022/01/15 02:00:18;;;;;;;;;98.33;86.33;;;;;4.14;86.36;102066.66;5061538;28;45455;-61
2022/01/15 02:02:44;;;;;;;;;91.33;77.67;;;;;4.10;86.46;102064.88;5060869;28;46117;-60
2022/01/15 02:05:10;;;;;;;;;97.67;84.00;;;;;4.08;85.88;102062.25;5042647;28;45368;-61
2022/01/15 02:07:36;;;;;;;;;92.00;81.67;;;;;4.04;86.68;102052.69;5058191;28;45401;-62
2022/01/15 02:10:05;;;;;;;;;101.67;84.00;;;;;3.99;86.56;102045.66;5059193;28;45295;-60
2022/01/15 02:12:30;;;;;;;;;95.67;83.00;;;;;4.03;86.88;102056.13;5056813;28;45596;-62
2022/01/15 02:14:55;;;;;;;;;94.33;85.33;;;;;4.00;86.64;102048.28;5051305;28;45308;-60
2022/01/15 02:17:21;;;;;;;;;97.33;84.67;;;;;4.02;86.84;102050.91;5055097;28;45804;-59
2022/01/15 02:20:10;;;;;;;;;98.67;79.67;;;;;3.99;86.54;102053.47;5065509;28;45479;-60
2022/01/15 02:25:16;;;;;;;;;89.67;79.00;;;;;3.95;87.32;102044.75;5054941;28;45379;-60
2022/01/15 02:27:42;;;;;;;;;100.67;82.00;;;;;3.90;87.12;102042.09;5054665;28;45476;-61
2022/01/15 02:30:08;;;;;;;;;90.33;78.33;;;;;3.93;87.19;102049.09;5054806;28;45667;-60
2022/01/15 02:32:35;;;;;;;;;94.33;78.67;;;;;3.92;87.31;102045.59;5054184;28;46246;-61
2022/01/15 02:35:01;;;;;;;;;88.33;75.67;;;;;3.92;86.92;102042.13;5076157;28;45313;-59
2022/01/15 02:37:28;;;;;;;;;90.00;75.00;;;;;3.91;86.98;102046.44;5079027;28;45339;-61
2022/01/15 02:39:55;;;;;;;;;91.33;75.00;;;;;3.91;86.64;102046.44;5077931;28;45480;-59
2022/01/15 02:42:20;;;;;;;;;72.00;53.33;;;;;3.89;86.63;102049.91;5075798;28;45669;-60
2022/01/15 02:44:45;;;;;;;;;89.33;70.33;;;;;3.86;87.45;102042.06;5074931;28;45445;-61
2022/01/15 02:49:55;;;;;;;;;89.67;77.33;;;;;3.81;87.44;102026.38;5073605;28;45437;-60
2022/01/15 02:52:20;;;;;;;;;89.67;76.67;;;;;3.82;86.97;102037.69;5074449;28;45451;-61
2022/01/15 02:54:45;;;;;;;;;89.33;78.33;;;;;3.80;86.95;102032.44;5076771;28;45273;-60
2022/01/15 02:57:11;;;;;;;;;86.00;69.00;;;;;3.74;87.31;102008.94;5076144;28;45378;-61
2022/01/15 02:59:36;;;;;;;;;91.00;77.67;;;;;3.79;87.64;102020.28;5075094;28;45425;-59
2022/01/15 03:02:02;;;;;;;;;87.67;75.00;;;;;3.77;87.13;102011.59;5082629;27;45555;-62
2022/01/15 03:04:27;;;;;;;;;89.33;74.67;;;;;3.79;87.00;102015.06;5079872;28;45497;-61
2022/01/15 03:06:52;;;;;;;;;88.67;70.67;;;;;3.78;87.67;102016.81;5078283;28;45394;-60
2022/01/15 03:09:18;;;;;;;;;88.67;77.33;;;;;3.78;87.88;102008.13;5079509;28;45417;-59
2022/01/15 03:11:43;;;;;;;;;90.33;76.67;;;;;3.78;87.53;102010.72;5078989;27;45326;-59
2022/01/15 03:14:09;;;;;;;;;88.67;80.33;;;;;3.75;87.24;102002.88;5078961;28;45318;-61
2022/01/15 03:16:35;;;;;;;;;87.67;75.67;;;;;3.74;87.59;102003.75;5079024;27;45352;-61
2022/01/15 03:19:01;;;;;;;;;96.33;79.33;;;;;3.73;87.54;101999.38;5079605;28;45518;-61
2022/01/15 03:21:26;;;;;;;;;93.00;80.67;;;;;3.71;87.48;102001.09;5078972;28;45656;-60
2022/01/15 03:23:52;;;;;;;;;92.00;77.33;;;;;3.72;87.70;102002.84;5082778;27;45292;-61
2022/01/15 03:26:17;;;;;;;;;92.67;78.67;;;;;3.69;87.71;102003.66;5082507;27;45367;-59
2022/01/15 03:28:43;;;;;;;;;93.67;77.67;;;;;3.70;88.29;102005.41;5085178;28;45167;-59
2022/01/15 03:31:09;;;;;;;;;93.00;79.33;;;;;3.70;87.96;101999.34;5082596;27;45261;-61
2022/01/15 03:33:35;;;;;;;;;90.67;78.67;;;;;3.64;87.52;101988.03;5079633;28;45345;-60
2022/01/15 03:36:00;;;;;;;;;94.00;84.00;;;;;3.70;87.96;101994.16;5065232;28;45359;-61
2022/01/15 03:38:25;;;;;;;;;101.67;86.33;;;;;3.65;88.07;101976.75;5080463;28;45331;-60
2022/01/15 03:40:54;;;;;;;;;94.67;84.00;;;;;3.59;87.79;101973.19;5079254;28;45674;-60
2022/01/15 03:43:20;;;;;;;;;101.00;84.67;;;;;3.64;88.29;101975.00;5079064;27;45449;-62
2022/01/15 03:45:45;;;;;;;;;100.00;88.33;;;;;3.61;88.34;101969.78;5079127;27;45403;-61
2022/01/15 03:48:11;;;;;;;;;101.33;86.67;;;;;3.65;88.64;101974.16;5079120;27;45425;-61
2022/01/15 03:50:36;;;;;;;;;117.50;100.25;;;;;3.61;88.48;101969.78;5078924;27;45914;-61
2022/01/15 03:53:02;;;;;;;;;106.67;95.00;;;;;3.58;88.47;101961.03;5078708;27;45238;-60
2022/01/15 03:55:27;;;;;;;;;119.67;100.00;;;;;3.64;87.91;101975.00;5078552;27;45258;-61
2022/01/15 03:57:53;;;;;;;;;114.33;100.00;;;;;3.64;87.95;101961.13;5079217;28;45563;-61
2022/01/15 04:00:24;;;;;;;;;112.00;97.00;;;;;3.64;88.69;101968.91;5079164;27;46120;-61
2022/01/15 04:02:51;;;;;;;;;104.67;91.00;;;;;3.63;88.13;101965.47;5079424;27;45450;-61
2022/01/15 04:05:17;;;;;;;;;108.00;97.33;;;;;3.61;88.58;101961.97;5079399;28;45445;-61
2022/01/15 04:07:42;;;;;;;;;102.67;92.67;;;;;3.62;87.84;101957.63;5061036;28;45568;-59
2022/01/15 04:10:11;;;;;;;;;114.33;101.00;;;;;3.58;88.13;101941.13;5063052;28;46375;-61
2022/01/15 04:12:37;;;;;;;;;116.33;100.33;;;;;3.56;88.24;101942.84;5077360;27;45358;-61
2022/01/15 04:15:03;;;;;;;;;115.75;97.75;;;;;3.51;88.85;101937.56;5078809;28;45370;-60
2022/01/15 04:17:29;;;;;;;;;112.67;94.33;;;;;3.58;88.74;101948.94;5078646;28;45584;-62
2022/01/15 04:19:54;;;;;;;;;106.00;95.67;;;;;3.58;88.32;101942.84;5078065;28;46115;-61
2022/01/15 04:22:20;;;;;;;;;108.33;92.33;;;;;3.56;88.35;101942.84;5060248;28;45480;-61
2022/01/15 04:24:45;;;;;;;;;111.33;96.67;;;;;3.56;88.19;101939.34;5078296;27;45470;-61
2022/01/15 04:27:10;;;;;;;;;106.33;93.67;;;;;3.55;88.07;101935.88;5078254;28;45391;-61
2022/01/15 04:29:36;;;;;;;;;105.67;90.00;;;;;3.54;88.65;101938.44;5077890;27;47167;-60
2022/01/15 04:32:02;;;;;;;;;110.33;94.00;;;;;3.55;88.07;101940.19;5077887;28;45320;-61
2022/01/15 04:34:29;;;;;;;;;103.67;87.67;;;;;3.52;88.37;101933.25;5077828;28;45212;-61
2022/01/15 04:37:01;;;;;;;;;105.33;92.67;;;;;3.54;87.78;101931.53;5078876;28;45235;-61
2022/01/15 04:39:27;;;;;;;;;99.33;83.33;;;;;3.54;87.63;101931.53;5078078;28;46376;-61
2022/01/15 04:41:52;;;;;;;;;101.67;88.33;;;;;3.54;88.12;101920.25;5078885;27;45216;-61
2022/01/15 04:44:18;;;;;;;;;111.00;86.33;;;;;3.55;88.24;101916.78;5081920;28;45449;-62
2022/01/15 04:46:43;;;;;;;;;92.67;83.33;;;;;3.54;88.65;101926.34;5083476;27;45568;-61
2022/01/15 04:49:09;;;;;;;;;100.67;82.33;;;;;3.56;88.22;101918.53;5077705;28;46319;-62
2022/01/15 04:51:34;;;;;;;;;99.00;79.00;;;;;3.56;88.40;101918.53;5077594;28;45376;-61
2022/01/15 04:54:00;;;;;;;;;106.00;93.33;;;;;3.55;87.84;101916.78;5077765;28;45630;-62
2022/01/15 04:56:26;;;;;;;;;103.67;94.33;;;;;3.52;87.95;101912.44;5079487;28;45342;-61
2022/01/15 04:58:52;;;;;;;;;106.33;89.00;;;;;3.53;87.57;101918.50;5078247;28;46638;-61
2022/01/15 05:01:17;;;;;;;;;104.67;90.67;;;;;3.50;88.76;101915.00;5077664;27;45382;-62
2022/01/15 05:03:43;;;;;;;;;112.00;98.33;;;;;3.45;88.03;101903.69;5078023;27;45402;-61
2022/01/15 05:06:08;;;;;;;;;116.67;99.33;;;;;3.50;87.85;101911.53;5078216;28;45341;-62
2022/01/15 05:08:34;;;;;;;;;113.50;97.50;;;;;3.49;88.13;101912.41;5078414;28;46107;-61
2022/01/15 05:11:10;;;;;;;;;114.75;107.50;;;;;3.47;88.45;101914.13;5077419;27;45407;-62
2022/01/15 05:13:36;;;;;;;;;111.00;102.75;;;;;3.44;88.09;101914.94;5077198;28;45303;-60
2022/01/15 05:16:03;;;;;;;;;119.75;102.75;;;;;3.44;88.69;101914.09;5079657;28;45257;-61
2022/01/15 05:18:28;;;;;;;;;107.67;95.33;;;;;3.42;88.83;101902.78;5077244;27;47705;-61
2022/01/15 05:20:54;;;;;;;;;106.33;95.00;;;;;3.43;89.23;101914.94;5077593;28;45336;-62
2022/01/15 05:23:20;;;;;;;;;99.00;84.67;;;;;3.43;88.96;101912.34;5078171;28;45248;-62
2022/01/15 05:25:45;;;;;;;;;112.33;97.00;;;;;3.39;88.79;101901.00;5077574;28;45553;-60
2022/01/15 05:28:10;;;;;;;;;110.00;94.67;;;;;3.39;88.27;101905.34;5077100;28;46280;-61
2022/01/15 05:30:36;;;;;;;;;107.00;89.00;;;;;3.34;88.88;101903.56;5077142;28;45312;-60
2022/01/15 05:33:01;;;;;;;;;98.67;94.67;;;;;3.31;88.95;101906.16;5076681;28;45479;-61
2022/01/15 05:35:27;;;;;;;;;101.67;90.00;;;;;3.25;88.85;101895.69;5077234;28;45556;-60
2022/01/15 05:37:55;;;;;;;;;116.00;93.67;;;;;3.21;88.21;101892.16;5076670;28;46143;-61
2022/01/15 05:40:21;;;;;;;;;106.00;91.67;;;;;3.25;88.20;101906.06;5076563;27;45430;-60
2022/01/15 05:42:47;;;;;;;;;102.00;92.33;;;;;3.25;89.35;101910.38;5077214;28;45506;-61
2022/01/15 05:45:13;;;;;;;;;113.67;101.67;;;;;3.22;89.72;101908.66;5080664;28;45318;-61
2022/01/15 05:47:38;;;;;;;;;101.33;85.67;;;;;3.24;89.65;101919.03;5077439;28;46306;-62
2022/01/15 05:50:05;;;;;;;;;104.33;94.33;;;;;3.20;89.65;101905.16;5077141;28;45338;-62
2022/01/15 05:52:30;;;;;;;;;114.00;97.00;;;;;3.24;89.61;101913.84;5076995;28;45193;-62
2022/01/15 05:54:56;;;;;;;;;105.00;100.25;;;;;3.25;89.37;101913.00;5077361;28;45620;-62
2022/01/15 05:57:21;;;;;;;;;100.67;90.67;;;;;3.23;89.60;101915.59;5076858;27;47028;-62
2022/01/15 05:59:46;;;;;;;;;106.00;99.33;;;;;3.25;89.31;101924.28;5076911;27;45362;-61
2022/01/15 06:02:12;;;;;;;;;115.75;100.50;;;;;3.24;89.72;101913.84;5077237;28;45406;-60
2022/01/15 06:04:37;;;;;;;;;124.25;105.00;;;;;3.25;89.67;101923.41;5077393;28;45472;-60
2022/01/15 06:07:03;;;;;;;;;108.00;98.67;;;;;3.24;90.26;101916.44;5077108;27;45264;-62
2022/01/15 06:09:28;;;;;;;;;105.25;101.25;;;;;3.25;89.79;101919.09;5077708;27;45398;-62
2022/01/15 06:11:56;;;;;;;;;109.00;95.67;;;;;3.25;89.03;101920.78;5080592;28;45397;-62
2022/01/15 06:14:21;;;;;;;;;120.67;99.67;;;;;3.21;89.18;101917.31;5076648;28;45356;-61
2022/01/15 06:16:47;;;;;;;;;123.75;103.25;;;;;3.23;89.88;101920.78;5075966;28;46800;-64
2022/01/15 06:19:12;;;;;;;;;116.00;100.50;;;;;3.21;89.37;101912.09;5057758;28;45388;-61
2022/01/15 06:21:38;;;;;;;;;130.00;111.00;;;;;3.22;90.04;101916.44;5076123;27;45399;-62
2022/01/15 06:24:03;;;;;;;;;118.50;104.00;;;;;3.21;89.27;101917.31;5076066;28;45513;-62
2022/01/15 06:26:29;;;;;;;;;112.00;96.67;;;;;3.20;89.48;101908.59;5075710;28;45317;-63
2022/01/15 06:28:54;;;;;;;;;118.00;102.50;;;;;3.20;89.07;101912.94;5077341;27;45228;-62
2022/01/15 06:31:19;;;;;;;;;120.25;104.50;;;;;3.20;89.28;101907.75;5081684;28;45273;-61
2022/01/15 06:33:45;;;;;;;;;115.67;102.67;;;;;3.20;89.29;101918.16;5082455;28;45231;-61
2022/01/15 06:36:10;;;;;;;;;116.75;105.00;;;;;3.20;89.15;101918.16;5078654;28;46419;-62
2022/01/15 06:38:35;;;;;;;;;118.00;103.25;;;;;3.19;89.88;101908.59;5078268;28;45449;-61
2022/01/15 06:41:01;;;;;;;;;123.50;103.50;;;;;3.21;89.50;101907.75;5079870;28;45369;-62
2022/01/15 06:43:26;;;;;;;;;112.25;100.25;;;;;3.20;89.32;101905.16;5080169;28;45416;-61
2022/01/15 06:45:52;;;;;;;;;120.50;107.75;;;;;3.21;89.90;101902.56;5076056;27;46118;-61
2022/01/15 06:48:17;;;;;;;;;116.25;98.25;;;;;3.11;89.33;101887.69;5078561;28;45425;-61
2022/01/15 06:50:43;;;;;;;;;117.25;105.50;;;;;3.18;88.78;101897.31;5082364;28;45416;-62
2022/01/15 06:53:08;;;;;;;;;125.75;103.50;;;;;3.13;88.75;101890.31;5078643;28;45471;-61
2022/01/15 06:55:34;;;;;;;;;118.75;104.75;;;;;3.11;89.84;101902.41;5076083;28;47135;-62
2022/01/15 06:57:59;;;;;;;;;124.00;105.00;;;;;3.10;89.42;101898.06;5058383;28;45530;-62
2022/01/15 07:00:25;;;;;;;;;122.50;106.25;;;;;3.11;90.23;101890.31;5079903;28;45397;-64
2022/01/15 07:02:51;;;;;;;;;111.50;98.75;;;;;3.07;89.58;101884.19;5081226;28;45391;-62
2022/01/15 07:05:16;;;;;;;;;119.75;108.50;;;;;3.11;90.03;101884.22;5079716;28;45845;-63
2022/01/15 07:07:45;;;;;;;;;102.75;97.00;;;;;3.10;90.01;101870.34;5081282;28;45260;-61
2022/01/15 07:10:11;;;;;;;;;114.67;102.33;;;;;3.15;89.35;101878.19;5085573;28;45273;-66
2022/01/15 07:12:36;;;;;;;;;111.00;95.33;;;;;3.17;89.84;101879.97;5079801;28;45412;-62
2022/01/15 07:15:03;;;;;;;;;112.33;94.67;;;;;3.16;89.01;101872.13;5076242;28;46087;-62
2022/01/15 07:17:28;;;;;;;;;110.33;95.67;;;;;3.19;89.75;101875.66;5078855;28;45305;-60
2022/01/15 07:19:53;;;;;;;;;104.67;93.00;;;;;3.18;89.92;101866.13;5076540;28;45276;-60
2022/01/15 07:22:19;;;;;;;;;111.67;96.33;;;;;3.18;89.81;101860.91;5077035;28;45384;-62
2022/01/15 07:24:44;;;;;;;;;117.00;103.25;;;;;3.16;89.10;101872.13;5074763;28;46004;-62
2022/01/15 07:27:09;;;;;;;;;108.33;93.33;;;;;3.17;89.63;101872.16;5074597;28;52735;-61
2022/01/15 07:29:37;;;;;;;;;102.00;89.67;;;;;3.18;89.13;101871.31;5075217;27;45331;-64
2022/01/15 07:32:03;;;;;;;;;108.00;91.67;;;;;3.20;90.23;101876.53;5075675;28;45299;-61
2022/01/15 07:34:29;;;;;;;;;104.67;88.33;;;;;3.20;89.46;101873.94;5075398;28;46255;-61
2022/01/15 07:36:59;;;;;;;;;109.67;95.33;;;;;3.18;90.20;101878.22;5074946;28;45279;-61
2022/01/15 07:39:25;;;;;;;;;100.33;92.67;;;;;3.19;89.83;101873.06;5075272;28;45334;-61
2022/01/15 07:41:51;;;;;;;;;109.67;96.00;;;;;3.18;89.43;101871.31;5075368;28;45473;-61
2022/01/15 07:44:17;;;;;;;;;103.67;90.67;;;;;3.12;89.59;101855.66;5076134;28;46236;-61
2022/01/15 07:46:42;;;;;;;;;100.67;86.67;;;;;3.13;89.35;101852.19;5075942;27;45244;-60
2022/01/15 07:49:08;;;;;;;;;100.67;89.00;;;;;3.22;89.96;101867.03;5078851;28;45571;-64
2022/01/15 07:51:33;;;;;;;;;92.00;83.33;;;;;3.25;90.22;101872.28;5079109;28;45380;-61
2022/01/15 07:53:59;;;;;;;;;97.33;81.67;;;;;3.26;89.60;101865.31;5079020;27;45996;-61
2022/01/15 07:56:24;;;;;;;;;106.67;92.00;;;;;3.24;89.28;101864.44;5079048;28;45371;-63
2022/01/15 07:58:49;;;;;;;;;101.00;88.00;;;;;3.24;89.17;101867.94;5078517;28;45212;-61
2022/01/15 08:01:16;;;;;;;;;100.00;87.33;;;;;3.23;89.13;101866.19;5079829;28;45694;-61
2022/01/15 08:03:42;;;;;;;;;103.00;94.33;;;;;3.21;89.42;101867.91;5082168;28;46383;-62
2022/01/15 08:06:09;;;;;;;;;95.00;88.33;;;;;3.24;88.96;101867.03;5082781;27;45270;-61
2022/01/15 08:08:34;;;;;;;;;104.67;86.00;;;;;3.23;89.48;101860.97;5082984;27;45490;-61
2022/01/15 08:11:00;;;;;;;;;93.67;80.33;;;;;3.26;89.63;101863.63;5079574;28;45325;-61
2022/01/15 08:13:26;;;;;;;;;106.67;85.00;;;;;3.28;88.83;101859.31;5060062;28;46038;-61
2022/01/15 08:15:52;;;;;;;;;100.00;92.00;;;;;3.25;89.40;101834.97;5078280;27;45433;-61
2022/01/15 08:18:19;;;;;;;;;96.00;86.00;;;;;3.32;89.37;101858.47;5078029;28;45279;-61
2022/01/15 08:20:45;;;;;;;;;97.33;88.67;;;;;3.34;89.40;101854.16;5078166;28;45601;-61
2022/01/15 08:23:10;;;;;;;;;113.33;96.67;;;;;3.34;88.78;101851.56;5079161;28;46358;-62
2022/01/15 08:25:35;;;;;;;;;112.67;95.33;;;;;3.27;88.84;101841.06;5079658;27;45264;-60
2022/01/15 08:28:01;;;;;;;;;104.33;93.33;;;;;3.34;89.34;101851.56;5082829;28;45356;-61
2022/01/15 08:30:27;;;;;;;;;107.33;92.33;;;;;3.30;88.93;101847.19;5080290;28;45548;-62
2022/01/15 08:32:52;;;;;;;;;99.67;88.00;;;;;3.38;89.05;101855.03;5078720;28;45331;-62
2022/01/15 08:35:18;;;;;;;;;89.00;86.00;;;;;3.38;88.65;101855.03;5079056;27;45478;-62
2022/01/15 08:37:44;;;;;;;;;109.33;90.67;;;;;3.40;89.26;101855.94;5079411;27;45389;-62
2022/01/15 08:40:12;;;;;;;;;98.67;87.33;;;;;3.42;88.70;101853.38;5078634;28;45425;-61
2022/01/15 08:42:38;;;;;;;;;100.00;85.67;;;;;3.39;89.18;101840.31;5077714;27;45994;-61
2022/01/15 08:45:06;;;;;;;;;103.33;89.33;;;;;3.48;88.46;101854.28;5059703;28;45304;-62
2022/01/15 08:47:31;;;;;;;;;104.33;94.00;;;;;3.50;88.99;101859.50;5078438;28;45853;-61
2022/01/15 08:49:57;;;;;;;;;97.67;84.33;;;;;3.43;88.34;101842.97;5060481;27;45464;-62
2022/01/15 08:52:23;;;;;;;;;110.33;96.67;;;;;3.55;88.58;101857.84;5080124;27;45432;-61
2022/01/15 08:54:48;;;;;;;;;100.67;85.33;;;;;3.59;88.52;101861.31;5078055;28;45624;-61
2022/01/15 08:57:14;;;;;;;;;105.67;91.33;;;;;3.57;87.84;101855.22;5059595;28;45375;-61
2022/01/15 08:59:39;;;;;;;;;99.67;86.33;;;;;3.64;87.88;101867.44;5076989;28;45540;-61
2022/01/15 09:02:05;;;;;;;;;105.00;89.67;;;;;3.60;87.79;101855.25;5077461;27;46022;-61
2022/01/15 09:04:31;;;;;;;;;101.00;89.67;;;;;3.71;88.14;101873.59;5076923;27;45419;-61
2022/01/15 09:06:56;;;;;;;;;104.33;87.00;;;;;3.73;88.31;101871.88;5076965;28;45379;-62
2022/01/15 09:09:22;;;;;;;;;105.00;88.00;;;;;3.75;88.19;101870.16;5056503;28;45340;-62
2022/01/15 09:11:48;;;;;;;;;102.00;88.00;;;;;3.78;87.87;101870.19;5056662;28;46174;-62
2022/01/15 09:14:13;;;;;;;;;103.67;91.67;;;;;3.80;87.26;101866.75;5056359;28;45199;-64
2022/01/15 09:16:39;;;;;;;;;113.33;96.67;;;;;3.86;88.07;101871.09;5057561;28;45423;-65
2022/01/15 09:19:05;;;;;;;;;110.25;93.75;;;;;3.90;87.41;101867.69;5057750;28;45554;-67
2022/01/15 09:21:30;;;;;;;;;116.67;103.00;;;;;3.95;87.28;101872.94;5055325;28;46073;-62
2022/01/15 09:23:56;;;;;;;;;107.00;96.67;;;;;3.98;87.30;101870.34;5056633;28;45308;-67
2022/01/15 09:26:35;;;;;;;;;116.00;101.75;;;;;4.04;87.85;101872.13;5056579;28;45437;-60
2022/01/15 09:31:44;;;;;;;;;119.67;102.00;;;;;4.19;87.36;101871.38;5056416;28;45472;-60
2022/01/15 09:34:09;;;;;;;;;117.00;100.67;;;;;4.22;86.88;101871.38;5055230;28;45965;-62
2022/01/15 09:36:35;;;;;;;;;122.75;115.50;;;;;4.28;86.66;101867.97;5053744;28;45779;-62
2022/01/15 09:39:00;;;;;;;;;111.50;101.50;;;;;4.32;87.03;101869.75;5051655;28;45454;-62
2022/01/15 09:41:26;;;;;;;;;121.50;106.75;;;;;4.36;86.67;101874.97;5050200;28;46948;-61
2022/01/15 09:43:52;;;;;;;;;109.00;105.25;;;;;4.41;86.70;101872.41;5044638;28;45439;-60
2022/01/15 09:46:18;;;;;;;;;114.75;103.00;;;;;4.48;86.41;101878.50;5049458;28;45539;-63
2022/01/15 09:48:47;;;;;;;;;123.00;107.00;;;;;4.47;86.43;101867.22;5054504;28;45446;-60
2022/01/15 09:51:12;;;;;;;;;120.25;107.75;;;;;4.51;85.34;101870.69;5055632;28;46385;-60
2022/01/15 09:53:37;;;;;;;;;121.50;110.25;;;;;4.53;86.13;101864.66;5037611;28;45454;-58
2022/01/15 09:56:06;;;;;;;;;125.25;107.50;;;;;4.66;85.53;101881.22;5056095;28;45457;-61
2022/01/15 09:58:31;;;;;;;;;126.75;112.75;;;;;4.68;85.41;101876.88;5056471;28;45528;-60
2022/01/15 10:00:56;;;;;;;;;115.50;105.50;;;;;4.69;84.66;101869.94;5056241;28;45309;-61
2022/01/15 10:03:22;;;;;;;;;127.50;113.25;;;;;4.66;84.00;101865.56;5056373;28;45371;-58
2022/01/15 10:05:49;;;;;;;;;131.75;115.50;;;;;4.62;84.29;101856.00;5050204;28;45487;-64
2022/01/15 10:08:19;;;;;;;;;137.75;121.00;;;;;4.60;84.11;101857.72;5037847;28;45538;-61
2022/01/15 10:10:49;;;;;;;;;136.25;118.00;;;;;4.64;84.97;101861.22;5039102;28;46129;-61
2022/01/15 10:13:18;;;;;;;;;139.75;122.00;;;;;4.65;84.88;101848.19;5034896;28;45291;-62
2022/01/15 10:15:48;;;;;;;;;130.25;115.00;;;;;4.77;85.37;101863.03;5044911;28;45443;-62
2022/01/15 10:18:23;;;;;;;;;117.25;109.25;;;;;4.85;84.58;101870.91;5054400;28;45359;-61
2022/01/15 10:20:50;;;;;;;;;133.25;117.00;;;;;4.90;84.78;101855.25;5054879;28;45940;-61
2022/01/15 10:23:17;;;;;;;;;135.25;121.25;;;;;4.97;84.77;101859.63;5055602;28;45286;-61
2022/01/15 10:25:43;;;;;;;;;151.50;133.00;;;;;4.98;84.35;101853.56;5057116;28;45553;-60
2022/01/15 10:28:09;;;;;;;;;143.50;132.25;;;;;5.09;84.18;101862.28;5038451;28;45494;-62
2022/01/15 10:30:35;;;;;;;;;144.25;125.25;;;;;5.12;83.21;101858.81;5055536;28;46507;-62
2022/01/15 10:33:06;;;;;;;;;146.50;126.50;;;;;5.11;84.08;101844.91;5055120;28;45417;-62
2022/01/15 10:35:33;;;;;;;;;135.50;125.75;;;;;5.24;84.47;101853.63;5059089;28;45527;-63
2022/01/15 10:38:04;;;;;;;;;98.25;84.75;;;;;5.33;83.86;101847.59;5037942;28;45556;-62
2022/01/15 10:40:41;;;;;;;;;139.00;120.50;;;;;5.39;83.15;101834.53;5041561;28;46070;-63
2022/01/15 10:43:09;;;;;;;;;133.25;120.50;;;;;5.44;82.95;101831.06;5037556;28;45397;-62
2022/01/15 10:45:50;;;;;;;;;141.00;125.75;;;;;5.44;82.45;101839.75;5036208;28;45411;-63
2022/01/15 10:48:41;;;;;;;;;143.00;127.25;;;;;5.49;82.53;101834.56;5036526;28;45241;-62
2022/01/15 10:51:10;;;;;;;;;155.00;136.00;;;;;5.48;81.54;101825.84;5036277;28;46980;-65
2022/01/15 10:53:39;;;;;;;;;156.00;127.75;;;;;5.46;81.53;101829.34;5042106;28;45202;-63
2022/01/15 10:56:08;;;;;;;;;129.00;125.00;;;;;5.50;81.66;101828.47;5060870;28;45896;-62
2022/01/15 10:58:35;;;;;;;;;143.00;124.00;;;;;5.52;81.33;101832.81;5061526;28;45249;-63
2022/01/15 11:01:00;;;;;;;;;140.00;123.50;;;;;5.61;82.41;101818.03;5040103;28;45470;-62
2022/01/15 11:03:45;;;;;;;;;137.50;124.25;;;;;5.70;81.95;101818.91;5037822;28;45178;-62
2022/01/15 11:06:11;;;;;;;;;148.25;135.75;;;;;5.79;82.32;101819.78;5036549;28;45490;-63
2022/01/15 11:08:38;;;;;;;;;147.25;133.75;;;;;5.84;81.34;101812.81;5038693;28;45523;-64
2022/01/15 11:11:09;;;;;;;;;145.50;130.00;;;;;5.85;80.33;101812.81;5036757;28;46431;-62
2022/01/15 11:13:40;;;;;;;;;144.00;130.25;;;;;5.92;80.62;101815.44;5035718;28;45415;-61
2022/01/15 11:16:14;;;;;;;;;154.75;135.00;;;;;5.95;80.90;101813.66;5035278;28;45390;-62
2022/01/15 11:18:43;;;;;;;;;136.25;123.00;;;;;5.99;79.62;101812.78;5034768;28;45396;-62
2022/01/15 11:21:15;;;;;;;;;142.25;129.25;;;;;6.03;79.53;101812.81;5034912;28;46183;-63
2022/01/15 11:23:42;;;;;;;;;133.75;117.50;;;;;6.08;80.18;101811.94;5039117;28;45903;-60
2022/01/15 11:26:11;;;;;;;;;145.25;129.50;;;;;6.14;79.81;101811.94;5039217;28;45339;-60
2022/01/15 11:28:36;;;;;;;;;139.75;121.00;;;;;6.16;79.17;101809.31;5042571;28;45490;-60
2022/01/15 11:31:08;;;;;;;;;135.50;116.25;;;;;6.16;78.64;101798.00;5038690;28;46994;-60
2022/01/15 11:33:38;;;;;;;;;141.00;124.00;;;;;6.16;78.63;101793.63;5037077;28;45356;-62